Terminal Aerodrome Forecast
Issued by NWS Duluth, MN

Home | Current Version | Previous Version | Text Only | Print | Product List | Glossary On
Versions: 1 2 3 4 5 6 7 8 9 10 11 12 13 14 15 16 17 18 19 20 21 22 23 24 25 26 27 28 29 30 31 32 33 34 35 36 37 38 39 40
000
FTUS43 KDLH 020200 AAA
TAFDLH
TAF AMD
KDLH 020254Z 0203/0224 21006KT 1/2SM FG OVC002
      TEMPO 0203/0207 1/4SM FG
     FM021300 27004KT 2SM BR OVC004
     FM021500 27005KT 4SM BR BKN005
     FM021700 29005KT 6SM BR OVC025
     FM021800 30004KT P6SM OVC050 PROB30 0221/0224 P6SM -RA OVC050=

USA.gov is the U.S. government's official web portal to all federal, state and local government web resources and services.